createdAt,value
2022-10-06T00:00:35.439Z,55.6
2022-10-06T00:02:18.837Z,55.6
2022-10-06T00:04:02.215Z,55.6
2022-10-06T00:05:45.682Z,55.6
2022-10-06T00:07:29.055Z,55.6
2022-10-06T00:10:55.488Z,55.6
2022-10-06T00:12:38.884Z,55.6
2022-10-06T00:14:22.323Z,55.6
2022-10-06T00:16:05.690Z,55.6
2022-10-06T00:17:49.087Z,55.6
2022-10-06T00:19:32.543Z,55.6
2022-10-06T00:21:15.847Z,55.6
2022-10-06T00:22:59.286Z,55.6
2022-10-06T00:24:42.652Z,55.6
2022-10-06T00:26:26.415Z,55.6
2022-10-06T00:28:09.759Z,55.6
2022-10-06T00:29:53.168Z,55.6
2022-10-06T00:31:36.622Z,55.6
2022-10-06T00:33:19.945Z,55.6
2022-10-06T00:35:03.368Z,55.6
2022-10-06T00:36:46.731Z,55.6
2022-10-06T00:38:30.232Z,55.6
2022-10-06T00:40:13.569Z,55.6
2022-10-06T00:43:40.008Z,55.6
2022-10-06T00:45:23.417Z,55.6
2022-10-06T00:47:06.858Z,55.6
2022-10-06T00:48:50.198Z,55.6
2022-10-06T00:50:33.616Z,55.6
2022-10-06T00:52:16.982Z,55.6
2022-10-06T00:54:00.382Z,55.6
2022-10-06T00:55:43.817Z,55.6
2022-10-06T01:00:53.062Z,55.6
2022-10-06T01:02:36.409Z,55.6
2022-10-06T01:04:19.822Z,55.6
2022-10-06T01:06:03.260Z,55.6
2022-10-06T01:07:46.603Z,55.6
2022-10-06T01:09:30.138Z,55.6
2022-10-06T01:11:13.388Z,55.6
2022-10-06T01:12:56.788Z,55.6
2022-10-06T01:16:23.305Z,55.6
2022-10-06T01:18:06.661Z,55.6
2022-10-06T01:19:50.073Z,55.6
2022-10-06T01:21:33.448Z,55.6
2022-10-06T01:23:16.844Z,55.6
2022-10-06T01:25:00.277Z,55.6
2022-10-06T01:26:43.643Z,55.6
2022-10-06T01:28:27.035Z,55.6
2022-10-06T01:33:36.316Z,55.6
2022-10-06T01:35:19.744Z,55.6
2022-10-06T01:37:03.077Z,55.6
2022-10-06T01:38:46.481Z,55.6
2022-10-06T01:40:29.924Z,55.6
2022-10-06T01:42:13.251Z,55.6
2022-10-06T01:43:56.690Z,55.6
2022-10-06T01:45:40.056Z,55.6
2022-10-06T01:49:06.525Z,55.6
2022-10-06T01:50:49.965Z,55.6
2022-10-06T01:52:33.321Z,55.6
2022-10-06T01:54:16.728Z,55.6
2022-10-06T01:56:00.115Z,55.6
2022-10-06T01:57:43.500Z,55.6
2022-10-06T01:59:26.927Z,55.6
2022-10-06T02:01:10.302Z,55.6
2022-10-06T02:06:19.540Z,55.6
2022-10-06T02:08:02.935Z,55.6
2022-10-06T02:09:46.375Z,55.6
2022-10-06T02:11:29.719Z,55.6
2022-10-06T02:13:13.144Z,55.6
2022-10-06T02:14:56.606Z,55.6
2022-10-06T02:16:39.911Z,55.6
2022-10-06T02:18:23.338Z,55.7
2022-10-06T02:20:06.711Z,55.7
2022-10-06T02:21:50.476Z,55.7
2022-10-06T02:23:33.807Z,55.7
2022-10-06T02:25:17.224Z,55.7
2022-10-06T02:27:00.663Z,55.7
2022-10-06T02:28:43.995Z,55.7
2022-10-06T02:30:27.424Z,55.7
2022-10-06T02:32:10.790Z,55.7
2022-10-06T02:33:54.183Z,55.7
2022-10-06T02:39:03.428Z,55.7
2022-10-06T02:40:46.871Z,55.7
2022-10-06T02:42:30.227Z,55.7
2022-10-06T02:44:13.633Z,55.7
2022-10-06T02:45:57.011Z,55.7
2022-10-06T02:47:40.400Z,55.7
2022-10-06T02:49:23.838Z,55.7
2022-10-06T02:51:07.201Z,55.7
2022-10-06T02:52:50.639Z,55.7
2022-10-06T02:54:34.290Z,55.7
2022-10-06T02:56:17.733Z,55.7
2022-10-06T02:58:01.133Z,55.7
2022-10-06T02:59:44.479Z,55.7
2022-10-06T03:01:27.921Z,55.7
2022-10-06T03:03:11.289Z,55.7
2022-10-06T03:04:54.680Z,55.7
2022-10-06T03:06:38.141Z,55.7
2022-10-06T03:08:21.459Z,55.7
2022-10-06T03:11:47.975Z,55.7
2022-10-06T03:13:31.331Z,55.7
2022-10-06T03:15:14.740Z,55.7
2022-10-06T03:16:58.165Z,55.7
2022-10-06T03:18:41.527Z,55.7
2022-10-06T03:20:24.924Z,55.7
2022-10-06T03:22:08.367Z,55.7
2022-10-06T03:23:51.711Z,55.7
2022-10-06T03:29:00.952Z,55.7
2022-10-06T03:30:44.367Z,55.7
2022-10-06T03:32:27.813Z,55.7
2022-10-06T03:34:11.149Z,55.7
2022-10-06T03:35:54.582Z,55.7
2022-10-06T03:37:37.945Z,55.7
2022-10-06T03:39:21.341Z,55.7
2022-10-06T03:41:04.774Z,55.7
2022-10-06T03:46:14.023Z,55.7
2022-10-06T03:47:57.380Z,55.7
2022-10-06T03:49:40.780Z,55.7
2022-10-06T03:51:24.223Z,55.7
2022-10-06T03:53:07.557Z,55.7
2022-10-06T03:54:50.989Z,55.7
2022-10-06T03:56:34.356Z,55.7
2022-10-06T03:58:17.750Z,55.7
2022-10-06T04:03:27.042Z,55.7
2022-10-06T04:05:10.425Z,55.7
2022-10-06T04:06:53.799Z,55.7
2022-10-06T04:08:37.192Z,55.7
2022-10-06T04:10:20.679Z,55.7
2022-10-06T04:12:03.963Z,55.7
2022-10-06T04:13:47.396Z,55.7
2022-10-06T04:15:30.766Z,55.7
2022-10-06T04:17:14.159Z,55.7
2022-10-06T04:20:40.682Z,55.7
2022-10-06T04:22:24.018Z,55.7
2022-10-06T04:24:07.463Z,55.7
2022-10-06T04:25:50.886Z,55.7
2022-10-06T04:27:34.225Z,55.7
2022-10-06T04:29:17.639Z,55.7
2022-10-06T04:31:01.086Z,55.7
2022-10-06T04:32:44.402Z,55.7
2022-10-06T04:37:53.651Z,55.7
2022-10-06T04:39:37.111Z,55.7
2022-10-06T04:41:20.453Z,55.7
2022-10-06T04:43:03.853Z,55.7
2022-10-06T04:44:47.288Z,55.7
2022-10-06T04:46:30.632Z,55.7
2022-10-06T04:48:14.053Z,55.7
2022-10-06T04:49:57.432Z,55.7
2022-10-06T04:55:06.733Z,55.7
2022-10-06T04:56:50.113Z,55.7
2022-10-06T04:58:33.491Z,55.7
2022-10-06T05:00:16.972Z,55.7
2022-10-06T05:02:00.264Z,55.7
2022-10-06T05:03:43.700Z,55.7
2022-10-06T05:05:27.252Z,55.7
2022-10-06T05:07:10.615Z,55.8
2022-10-06T05:12:19.722Z,55.8
2022-10-06T05:14:03.090Z,55.8
2022-10-06T05:15:46.479Z,55.8
2022-10-06T05:17:29.913Z,55.8
2022-10-06T05:19:13.273Z,55.8
2022-10-06T05:20:56.664Z,55.8
2022-10-06T05:22:40.102Z,55.8
2022-10-06T05:24:23.455Z,55.8
2022-10-06T05:29:32.704Z,55.8
2022-10-06T05:31:16.108Z,55.8
2022-10-06T05:32:59.550Z,55.8
2022-10-06T05:34:42.883Z,55.8
2022-10-06T05:36:26.314Z,55.8
2022-10-06T05:38:09.670Z,55.8
2022-10-06T05:39:53.070Z,55.8
2022-10-06T05:41:36.523Z,55.8
2022-10-06T05:46:45.759Z,55.8
2022-10-06T05:48:29.107Z,55.8
2022-10-06T05:50:12.526Z,55.8
2022-10-06T05:51:55.897Z,55.8
2022-10-06T05:53:39.301Z,55.8
2022-10-06T05:55:22.723Z,55.8
2022-10-06T05:57:06.093Z,55.8
2022-10-06T05:58:49.486Z,55.8
2022-10-06T06:00:32.921Z,55.8
2022-10-06T06:03:59.362Z,55.8
2022-10-06T06:05:42.772Z,55.8
2022-10-06T06:07:26.140Z,55.8
2022-10-06T06:09:09.558Z,55.8
2022-10-06T06:10:52.966Z,55.8
2022-10-06T06:12:36.344Z,55.8
2022-10-06T06:14:19.734Z,55.8
2022-10-06T06:16:03.168Z,55.8
2022-10-06T06:17:46.508Z,55.8
2022-10-06T06:21:13.018Z,55.8
2022-10-06T06:22:56.454Z,55.9
2022-10-06T06:24:39.790Z,55.8
2022-10-06T06:26:23.218Z,55.8
2022-10-06T06:28:06.604Z,56.2
2022-10-06T06:29:49.980Z,56
2022-10-06T06:31:33.425Z,56.1
2022-10-06T06:33:16.771Z,56.2
2022-10-06T06:35:00.192Z,56.5
2022-10-06T06:38:26.676Z,56.1
2022-10-06T06:40:10.044Z,56.2
2022-10-06T06:41:53.461Z,56.2
2022-10-06T06:43:36.834Z,56.1
2022-10-06T06:45:20.235Z,56
2022-10-06T06:47:03.672Z,56
2022-10-06T06:48:47.024Z,56
2022-10-06T06:50:30.427Z,56
2022-10-06T06:55:39.674Z,56.1
2022-10-06T06:57:23.126Z,56.1
2022-10-06T06:59:06.461Z,56.1
2022-10-06T07:00:49.979Z,56
2022-10-06T07:02:33.302Z,56
2022-10-06T07:04:16.646Z,56.1
2022-10-06T07:06:00.077Z,56.2
2022-10-06T07:07:43.454Z,56.1
2022-10-06T07:09:26.834Z,56
2022-10-06T07:12:53.511Z,55.9
2022-10-06T07:14:36.846Z,55.8
2022-10-06T07:16:20.131Z,55.8
2022-10-06T07:18:03.490Z,55.9
2022-10-06T07:19:46.946Z,55.9
2022-10-06T07:21:30.326Z,55.9
2022-10-06T07:23:13.687Z,55.9
2022-10-06T07:24:57.085Z,55.9
2022-10-06T07:26:40.562Z,55.9
2022-10-06T07:30:06.992Z,55.8
2022-10-06T07:31:50.378Z,55.9
2022-10-06T07:33:33.737Z,55.9
2022-10-06T07:35:17.269Z,55.8
2022-10-06T07:37:00.593Z,55.9
2022-10-06T07:38:44.015Z,55.9
2022-10-06T07:40:27.336Z,55.9
2022-10-06T07:42:10.773Z,55.9
2022-10-06T07:43:54.104Z,55.9
2022-10-06T07:47:20.701Z,55.8
2022-10-06T07:49:04.022Z,55.8
2022-10-06T07:50:47.426Z,55.9
2022-10-06T07:52:30.825Z,55.9
2022-10-06T07:54:14.204Z,55.9
2022-10-06T07:55:57.589Z,55.9
2022-10-06T07:57:41.071Z,56
2022-10-06T07:59:24.359Z,55.9
2022-10-06T08:01:07.794Z,55.9
2022-10-06T08:02:51.463Z,55.9
2022-10-06T08:04:34.905Z,55.8
2022-10-06T08:06:18.267Z,55.9
2022-10-06T08:08:01.682Z,55.8
2022-10-06T08:09:45.046Z,55.8
2022-10-06T08:11:28.447Z,55.8
2022-10-06T08:13:11.876Z,55.8
2022-10-06T08:14:55.252Z,55.8
2022-10-06T08:16:38.629Z,56.1
2022-10-06T08:20:05.156Z,56.3
2022-10-06T08:21:48.503Z,56.3
2022-10-06T08:23:31.918Z,56.3
2022-10-06T08:25:15.353Z,56.4
2022-10-06T08:26:58.789Z,56.2
2022-10-06T08:28:42.118Z,56.1
2022-10-06T08:30:25.511Z,56.2
2022-10-06T08:32:08.899Z,56.2
2022-10-06T08:33:52.320Z,56.5
2022-10-06T08:37:18.754Z,56.1
2022-10-06T08:39:02.158Z,56
2022-10-06T08:40:45.551Z,56
2022-10-06T08:42:28.947Z,56.1
2022-10-06T08:44:12.368Z,56
2022-10-06T08:45:55.734Z,56
2022-10-06T08:47:39.143Z,56
2022-10-06T08:49:22.564Z,55.9
2022-10-06T08:51:05.935Z,55.9
2022-10-06T08:52:49.710Z,55.9
2022-10-06T08:54:33.054Z,55.9
2022-10-06T08:56:16.452Z,55.9
2022-10-06T08:57:59.888Z,55.9
2022-10-06T08:59:43.235Z,56.1
2022-10-06T09:01:26.674Z,56.2
2022-10-06T09:03:10.063Z,56.1
2022-10-06T09:04:53.442Z,56
2022-10-06T09:06:36.854Z,56.1
2022-10-06T09:11:46.061Z,56
2022-10-06T09:13:29.421Z,56
2022-10-06T09:15:12.858Z,56.1
2022-10-06T09:16:56.228Z,56.1
2022-10-06T09:20:23.072Z,56.4
2022-10-06T09:22:15.311Z,56.4
2022-10-06T09:23:49.976Z,56.6
2022-10-06T09:28:59.683Z,56.5
2022-10-06T09:32:26.686Z,56.6
2022-10-06T09:34:09.909Z,56.5
2022-10-06T09:37:37.432Z,56.8
2022-10-06T09:40:02.104Z,57.2
2022-10-06T09:46:12.752Z,57
2022-10-06T09:49:39.559Z,56.8
2022-10-06T09:51:22.926Z,56.8
2022-10-06T09:54:49.734Z,57.1
2022-10-06T09:56:33.070Z,57.1
2022-10-06T09:58:16.477Z,56.8
2022-10-06T10:03:25.728Z,56.8
2022-10-06T10:05:09.166Z,56.9
2022-10-06T10:06:52.557Z,56.8
2022-10-06T10:08:35.923Z,56.8
2022-10-06T10:10:19.300Z,56.8
2022-10-06T10:12:02.703Z,56.7
2022-10-06T10:13:46.129Z,56.7
2022-10-06T10:15:29.517Z,56.7
2022-10-06T10:17:12.894Z,56.7
2022-10-06T10:18:56.599Z,56.7
2022-10-06T10:20:40.007Z,56.6
2022-10-06T10:22:23.408Z,56.6
2022-10-06T10:24:06.773Z,56.6
2022-10-06T10:25:50.205Z,56.6
2022-10-06T10:27:33.563Z,56.5
2022-10-06T10:29:16.980Z,56.5
2022-10-06T10:31:00.422Z,56.6
2022-10-06T10:32:43.761Z,56.6
2022-10-06T10:36:10.254Z,56.8
2022-10-06T10:37:53.628Z,57.1
2022-10-06T10:39:37.069Z,57
2022-10-06T10:41:20.465Z,56.8
2022-10-06T10:43:03.817Z,57.1
2022-10-06T10:44:47.219Z,57.3
2022-10-06T10:46:30.594Z,57.3
2022-10-06T10:48:13.988Z,57.2
2022-10-06T10:53:23.239Z,57.1
2022-10-06T10:55:06.673Z,57
2022-10-06T10:56:50.021Z,57
2022-10-06T10:58:33.501Z,56.9
2022-10-06T11:00:16.866Z,57
2022-10-06T11:02:00.214Z,57.2
2022-10-06T11:03:43.621Z,57.4
2022-10-06T11:05:27.144Z,57.5
2022-10-06T11:07:10.407Z,57.5
2022-10-06T11:08:54.109Z,57.6
2022-10-06T11:10:37.517Z,58.1
2022-10-06T11:12:21.007Z,59
2022-10-06T11:14:04.293Z,58.4
2022-10-06T11:15:47.825Z,59
2022-10-06T11:17:31.086Z,58.5
2022-10-06T11:19:14.483Z,58.8
2022-10-06T11:20:57.933Z,58.7
2022-10-06T11:22:41.269Z,58.1
2022-10-06T11:24:24.981Z,58.1
2022-10-06T11:26:08.383Z,58
2022-10-06T11:27:51.799Z,58.3
2022-10-06T11:29:35.180Z,58.6
2022-10-06T11:31:18.561Z,58.6
2022-10-06T11:33:02.001Z,58.7
2022-10-06T11:34:45.356Z,58.6
2022-10-06T11:36:28.762Z,59
2022-10-06T11:38:12.211Z,58.9
2022-10-06T11:39:55.916Z,58.5
2022-10-06T11:41:39.257Z,58.6
2022-10-06T11:43:22.641Z,58.6
2022-10-06T11:45:06.089Z,58.8
2022-10-06T11:46:49.429Z,59
2022-10-06T11:48:32.851Z,59
2022-10-06T11:50:16.311Z,58.9
2022-10-06T11:51:59.618Z,59
2022-10-06T11:53:43.067Z,59
2022-10-06T11:55:26.740Z,58.9
2022-10-06T11:57:10.178Z,59.1
2022-10-06T11:58:53.608Z,59.2
2022-10-06T12:00:36.936Z,59.5
2022-10-06T12:02:20.308Z,59.7
2022-10-06T12:04:03.712Z,59.9
2022-10-06T12:05:47.142Z,59.6
2022-10-06T12:07:30.488Z,59.6
2022-10-06T12:09:13.902Z,59.6
2022-10-06T12:10:57.633Z,59.6
2022-10-06T12:12:41.061Z,59.6
2022-10-06T12:14:24.400Z,59.9
2022-10-06T12:17:51.272Z,60
2022-10-06T12:19:34.640Z,60.1
2022-10-06T12:21:17.986Z,60.2
2022-10-06T12:23:01.358Z,60.2
2022-10-06T12:24:44.791Z,60.1
2022-10-06T12:28:11.261Z,60.4
2022-10-06T12:29:54.738Z,60.5
2022-10-06T12:31:38.040Z,60
2022-10-06T12:33:21.590Z,59.9
2022-10-06T12:35:04.834Z,60
2022-10-06T12:38:31.635Z,59.8
2022-10-06T12:40:15.004Z,59.8
2022-10-06T12:45:24.265Z,59.5
2022-10-06T12:47:07.720Z,59.5
2022-10-06T12:48:51.061Z,59.8
2022-10-06T12:50:34.453Z,59.5
2022-10-06T12:52:17.884Z,59.4
2022-10-06T12:54:01.247Z,59.3
2022-10-06T12:55:44.647Z,59.3
2022-10-06T12:57:28.082Z,59.2
2022-10-06T12:59:11.418Z,59.4
2022-10-06T13:02:37.935Z,59.6
2022-10-06T13:04:21.286Z,59.1
2022-10-06T13:06:04.688Z,59.3
2022-10-06T13:07:48.122Z,59.3
2022-10-06T13:09:31.493Z,59.3
2022-10-06T13:11:14.896Z,59.3
2022-10-06T13:12:58.271Z,58.9
2022-10-06T13:14:41.665Z,59
2022-10-06T13:19:50.937Z,58.9
2022-10-06T13:21:34.348Z,58.7
2022-10-06T13:23:17.691Z,58.6
2022-10-06T13:25:01.092Z,58.7
2022-10-06T13:26:44.539Z,58.8
2022-10-06T13:28:27.883Z,58.6
2022-10-06T13:30:11.297Z,58.6
2022-10-06T13:31:54.746Z,58.5
2022-10-06T13:38:47.339Z,58.8
2022-10-06T13:40:30.740Z,58.6
2022-10-06T13:42:14.102Z,58.6
2022-10-06T13:43:57.512Z,58.3
2022-10-06T13:45:40.997Z,58
2022-10-06T13:47:24.370Z,57.9
2022-10-06T13:49:07.705Z,57.7
2022-10-06T13:52:34.165Z,57.7
2022-10-06T13:54:17.585Z,57.9
2022-10-06T13:56:00.985Z,57.8
2022-10-06T13:57:44.343Z,58
2022-10-06T13:59:27.748Z,58.1
2022-10-06T14:01:11.187Z,58.1
2022-10-06T14:02:54.555Z,58.1
2022-10-06T14:04:37.952Z,58.2
2022-10-06T14:06:21.401Z,58.4
2022-10-06T14:09:47.801Z,58.4
2022-10-06T14:11:31.234Z,58.7
2022-10-06T14:13:14.971Z,58.9
2022-10-06T14:14:57.993Z,59.4
2022-10-06T14:16:41.439Z,59
2022-10-06T14:18:24.836Z,58.7
2022-10-06T14:20:08.195Z,58.7
2022-10-06T14:21:51.643Z,58.6
2022-10-06T14:27:00.882Z,58.9
2022-10-06T14:28:44.225Z,59
2022-10-06T14:30:27.644Z,59
2022-10-06T14:32:11.015Z,58.8
2022-10-06T14:33:54.420Z,59
2022-10-06T14:35:37.846Z,58.8
2022-10-06T14:37:21.195Z,58.6
2022-10-06T14:39:04.605Z,58.4
2022-10-06T14:44:13.858Z,58.8
2022-10-06T14:45:57.292Z,58.8
2022-10-06T14:47:40.639Z,58.8
2022-10-06T14:49:24.054Z,58.8
2022-10-06T14:51:07.434Z,58.6
2022-10-06T14:52:50.820Z,58.5
2022-10-06T14:54:34.257Z,58.5
2022-10-06T14:56:17.619Z,58.4
2022-10-06T14:59:44.112Z,58.4
2022-10-06T15:01:27.568Z,58.4
2022-10-06T15:03:10.890Z,58.4
2022-10-06T15:04:54.347Z,58.3
2022-10-06T15:06:37.669Z,58.4
2022-10-06T15:08:21.070Z,58.3
2022-10-06T15:10:04.506Z,58.5
2022-10-06T15:11:47.855Z,58.2
2022-10-06T15:16:57.110Z,58.1
2022-10-06T15:18:40.508Z,58.2
2022-10-06T15:20:23.977Z,58.3
2022-10-06T15:22:07.291Z,58.4
2022-10-06T15:23:50.715Z,58.4
2022-10-06T15:25:34.153Z,58.3
2022-10-06T15:27:17.478Z,58.3
2022-10-06T15:29:00.910Z,58.4
2022-10-06T15:32:27.341Z,58.4
2022-10-06T15:34:10.756Z,58.4
2022-10-06T15:35:54.192Z,58.3
2022-10-06T15:37:37.540Z,58.3
2022-10-06T15:39:20.970Z,58.3
2022-10-06T15:41:04.327Z,58.3
2022-10-06T15:42:47.741Z,58.3
2022-10-06T15:44:31.239Z,58.3
2022-10-06T15:49:40.400Z,58.3
2022-10-06T15:51:23.764Z,58.3
2022-10-06T15:53:07.178Z,58.3
2022-10-06T15:54:50.546Z,58.3
2022-10-06T15:56:33.972Z,58.3
2022-10-06T15:58:17.365Z,58.3
2022-10-06T16:00:00.808Z,58.3
2022-10-06T16:01:44.139Z,58.3
2022-10-06T16:05:10.653Z,58.3
2022-10-06T16:06:54.016Z,58.3
2022-10-06T16:08:37.416Z,58.3
2022-10-06T16:10:20.851Z,58.3
2022-10-06T16:12:04.192Z,58.2
2022-10-06T16:13:47.616Z,58.2
2022-10-06T16:15:31.052Z,58.2
2022-10-06T16:17:14.400Z,58.3
2022-10-06T16:18:57.828Z,58.3
2022-10-06T16:22:24.250Z,58.3
2022-10-06T16:24:07.661Z,58.3
2022-10-06T16:25:51.112Z,58.3
2022-10-06T16:27:34.454Z,58.4
2022-10-06T16:29:17.859Z,58.5
2022-10-06T16:31:01.229Z,58.5
2022-10-06T16:32:44.623Z,58.5
2022-10-06T16:34:28.099Z,58.5
2022-10-06T16:39:37.303Z,58.5
2022-10-06T16:41:20.669Z,58.5
2022-10-06T16:43:04.068Z,58.6
2022-10-06T16:44:47.556Z,58.6
2022-10-06T16:46:30.851Z,58.7
2022-10-06T16:48:14.269Z,58.7
2022-10-06T16:49:57.650Z,58.6
2022-10-06T16:51:41.038Z,58.6
2022-10-06T16:56:50.285Z,58.8
2022-10-06T16:58:33.723Z,58.8
2022-10-06T17:00:17.070Z,58.7
2022-10-06T17:02:00.474Z,59
2022-10-06T17:03:43.914Z,59
2022-10-06T17:05:27.266Z,59.1
2022-10-06T17:07:10.678Z,59.1
2022-10-06T17:08:54.062Z,59
2022-10-06T17:10:37.454Z,59
2022-10-06T17:14:03.960Z,59
2022-10-06T17:15:47.320Z,59
2022-10-06T17:17:30.728Z,59
2022-10-06T17:19:14.165Z,59
2022-10-06T17:20:57.504Z,59.1
2022-10-06T17:22:40.927Z,59.1
2022-10-06T17:24:24.336Z,59.2
2022-10-06T17:26:07.695Z,59.1
2022-10-06T17:31:16.939Z,59.1
2022-10-06T17:33:00.373Z,59.1
2022-10-06T17:34:43.736Z,59.1
2022-10-06T17:36:27.130Z,59.1
2022-10-06T17:38:10.580Z,59.1
2022-10-06T17:39:53.920Z,59.1
2022-10-06T17:41:37.390Z,59
2022-10-06T17:43:20.712Z,59
2022-10-06T17:45:04.108Z,59.1
2022-10-06T17:48:30.626Z,59.1
2022-10-06T17:50:13.961Z,59.1
2022-10-06T17:51:57.382Z,59.1
2022-10-06T17:53:40.825Z,59
2022-10-06T17:55:24.169Z,59
2022-10-06T17:57:07.588Z,59
2022-10-06T17:58:50.953Z,59
2022-10-06T18:00:34.341Z,59
2022-10-06T18:05:43.595Z,59
2022-10-06T18:07:27.037Z,59
2022-10-06T18:09:10.390Z,59
2022-10-06T18:10:53.786Z,59
2022-10-06T18:12:37.167Z,58.9
2022-10-06T18:14:20.560Z,58.9
2022-10-06T18:16:03.991Z,58.9
2022-10-06T18:17:47.359Z,58.9
2022-10-06T18:19:30.773Z,58.9
2022-10-06T18:22:57.277Z,58.9
2022-10-06T18:26:24.039Z,58.9
2022-10-06T18:28:07.479Z,58.9
2022-10-06T18:29:50.827Z,58.9
2022-10-06T18:31:34.240Z,58.9
2022-10-06T18:33:17.633Z,58.9
2022-10-06T18:35:01.014Z,58.9
2022-10-06T18:36:44.446Z,58.9
2022-10-06T18:40:10.880Z,58.9
2022-10-06T18:41:54.283Z,58.9
2022-10-06T18:43:37.661Z,58.9
2022-10-06T18:45:21.053Z,58.9
2022-10-06T18:47:04.485Z,58.9
2022-10-06T18:48:47.848Z,58.9
2022-10-06T18:52:14.692Z,58.9
2022-10-06T18:53:58.050Z,58.9
2022-10-06T18:55:41.745Z,58.9
2022-10-06T18:57:25.177Z,58.9
2022-10-06T18:59:08.573Z,58.9
2022-10-06T19:00:51.923Z,58.9
2022-10-06T19:02:35.352Z,58.9
2022-10-06T19:04:18.774Z,58.8
2022-10-06T19:06:02.143Z,58.8
2022-10-06T19:07:45.536Z,58.8
2022-10-06T19:12:54.786Z,58.9
2022-10-06T19:14:38.228Z,58.8
2022-10-06T19:16:21.543Z,58.8
2022-10-06T19:18:04.984Z,58.8
2022-10-06T19:19:48.345Z,58.9
2022-10-06T19:21:31.753Z,58.9
2022-10-06T19:23:15.191Z,58.9
2022-10-06T19:24:58.538Z,58.9
2022-10-06T19:30:07.765Z,58.9
2022-10-06T19:31:51.202Z,59.1
2022-10-06T19:33:34.565Z,59.1
2022-10-06T19:35:17.968Z,59
2022-10-06T19:37:01.401Z,58.9
2022-10-06T19:38:44.758Z,58.8
2022-10-06T19:40:28.161Z,58.7
2022-10-06T19:42:11.604Z,58.8
2022-10-06T19:43:54.943Z,58.6
2022-10-06T19:45:38.650Z,58.5
2022-10-06T19:47:22.045Z,58.6
2022-10-06T19:49:05.472Z,58.6
2022-10-06T19:50:48.845Z,58.6
2022-10-06T19:52:32.236Z,58.4
2022-10-06T19:54:15.679Z,58.3
2022-10-06T19:55:59.027Z,58.4
2022-10-06T19:57:42.442Z,58.4
2022-10-06T19:59:25.879Z,58.4
2022-10-06T20:02:52.292Z,58.4
2022-10-06T20:04:35.719Z,58.4
2022-10-06T20:06:19.092Z,58.4
2022-10-06T20:08:02.488Z,58.4
2022-10-06T20:09:45.928Z,58.3
2022-10-06T20:11:29.288Z,58.3
2022-10-06T20:13:12.692Z,58.3
2022-10-06T20:14:56.136Z,58.3
2022-10-06T20:16:39.462Z,58.4
2022-10-06T20:18:23.180Z,58.3
2022-10-06T20:20:06.574Z,58.3
2022-10-06T20:21:50.008Z,58.3
2022-10-06T20:23:33.353Z,58.3
2022-10-06T20:25:16.774Z,58.3
2022-10-06T20:27:00.152Z,58.3
2022-10-06T20:28:43.550Z,58.2
2022-10-06T20:30:26.980Z,58.2
2022-10-06T20:32:10.331Z,58.2
2022-10-06T20:33:54.095Z,58.1
2022-10-06T20:35:37.432Z,58.1
2022-10-06T20:37:20.858Z,58
2022-10-06T20:39:04.237Z,58
2022-10-06T20:40:47.652Z,58
2022-10-06T20:42:31.062Z,58
2022-10-06T20:44:14.422Z,58.1
2022-10-06T20:45:57.832Z,58.1
2022-10-06T20:47:41.275Z,58.1
2022-10-06T20:51:07.699Z,58
2022-10-06T20:52:51.120Z,58.1
2022-10-06T20:54:34.484Z,58.1
2022-10-06T20:56:17.864Z,58
2022-10-06T20:58:01.309Z,58
2022-10-06T20:59:44.670Z,58
2022-10-06T21:01:28.071Z,58
2022-10-06T21:03:11.518Z,58
2022-10-06T21:08:20.697Z,58
2022-10-06T21:10:04.126Z,58
2022-10-06T21:11:47.517Z,58
2022-10-06T21:13:30.960Z,58
2022-10-06T21:15:14.305Z,58
2022-10-06T21:16:57.717Z,58
2022-10-06T21:18:41.084Z,58
2022-10-06T21:20:24.495Z,58
2022-10-06T21:25:33.717Z,58
2022-10-06T21:27:17.177Z,58
2022-10-06T21:29:00.506Z,58
2022-10-06T21:30:43.922Z,58
2022-10-06T21:32:27.367Z,58
2022-10-06T21:34:10.690Z,58
2022-10-06T21:35:54.125Z,58
2022-10-06T21:37:37.525Z,58
2022-10-06T21:39:20.894Z,58
2022-10-06T21:41:04.606Z,57.9
2022-10-06T21:42:48.024Z,57.9
2022-10-06T21:44:31.379Z,57.9
2022-10-06T21:46:14.789Z,57.9
2022-10-06T21:47:58.213Z,57.9
2022-10-06T21:49:41.572Z,57.9
2022-10-06T21:51:24.976Z,57.9
2022-10-06T21:53:08.416Z,57.9
2022-10-06T21:54:51.781Z,57.9
2022-10-06T21:58:18.257Z,57.9
2022-10-06T22:00:01.694Z,57.9
2022-10-06T22:01:45.028Z,57.9
2022-10-06T22:03:28.472Z,57.9
2022-10-06T22:05:11.831Z,57.9
2022-10-06T22:06:55.223Z,57.9
2022-10-06T22:08:38.657Z,57.9
2022-10-06T22:10:22.013Z,57.9
2022-10-06T22:12:05.434Z,57.9
2022-10-06T22:15:31.952Z,57.9
2022-10-06T22:17:15.286Z,57.9
2022-10-06T22:18:58.707Z,57.8
2022-10-06T22:20:42.167Z,57.8
2022-10-06T22:22:25.482Z,57.8
2022-10-06T22:24:08.909Z,57.9
2022-10-06T22:25:52.268Z,57.8
2022-10-06T22:27:35.689Z,57.8
2022-10-06T22:29:19.126Z,57.8
2022-10-06T22:34:28.354Z,57.8
2022-10-06T22:36:11.695Z,57.8
2022-10-06T22:37:55.202Z,57.8
2022-10-06T22:39:38.494Z,57.8
2022-10-06T22:41:21.897Z,57.8
2022-10-06T22:43:05.342Z,57.8
2022-10-06T22:44:48.678Z,57.8
2022-10-06T22:46:32.080Z,57.8
2022-10-06T22:48:15.518Z,57.8
2022-10-06T22:49:59.199Z,57.8
2022-10-06T22:51:42.566Z,57.8
2022-10-06T22:53:25.989Z,57.8
2022-10-06T22:55:09.399Z,57.8
2022-10-06T22:56:52.762Z,57.7
2022-10-06T22:58:36.165Z,57.7
2022-10-06T23:00:19.609Z,57.7
2022-10-06T23:02:02.960Z,57.7
2022-10-06T23:03:46.407Z,57.7
2022-10-06T23:07:12.823Z,57.7
2022-10-06T23:08:56.220Z,57.7
2022-10-06T23:10:39.652Z,57.7
2022-10-06T23:12:23.011Z,57.7
2022-10-06T23:14:06.420Z,57.7
2022-10-06T23:15:49.856Z,57.7
2022-10-06T23:17:33.197Z,57.7
2022-10-06T23:19:16.617Z,57.7
2022-10-06T23:20:59.983Z,57.7
2022-10-06T23:24:26.467Z,57.7
2022-10-06T23:26:09.894Z,57.7
2022-10-06T23:27:53.270Z,57.7
2022-10-06T23:29:36.662Z,57.7
2022-10-06T23:31:20.043Z,57.7
2022-10-06T23:33:03.466Z,57.7
2022-10-06T23:34:46.864Z,57.7
2022-10-06T23:36:30.238Z,57.7
2022-10-06T23:38:13.630Z,57.6
2022-10-06T23:43:22.882Z,57.6
2022-10-06T23:45:06.350Z,57.6
2022-10-06T23:46:49.685Z,57.6
2022-10-06T23:48:33.077Z,57.6
2022-10-06T23:50:16.510Z,57.7
2022-10-06T23:51:59.846Z,57.6
2022-10-06T23:53:43.283Z,57.6
2022-10-06T23:55:26.640Z,57.6
2022-10-06T23:57:10.046Z,57.6
